sensor_id;sensor_type;location;lat;lon;timestamp;P1;durP1;ratioP1;P2;durP2;ratioP2
15633;SDS011;14654;48.898;8.308;2022-10-31T00:00:02;4.57;;;4.03;;
15633;SDS011;14654;48.898;8.308;2022-10-31T00:02:29;4.53;;;3.70;;
15633;SDS011;14654;48.898;8.308;2022-10-31T00:04:55;5.63;;;4.13;;
15633;SDS011;14654;48.898;8.308;2022-10-31T00:07:20;4.60;;;3.70;;
15633;SDS011;14654;48.898;8.308;2022-10-31T00:09:45;4.90;;;3.70;;
15633;SDS011;14654;48.898;8.308;2022-10-31T00:12:11;3.83;;;3.40;;
15633;SDS011;14654;48.898;8.308;2022-10-31T00:14:36;4.50;;;4.10;;
15633;SDS011;14654;48.898;8.308;2022-10-31T00:17:01;3.83;;;3.53;;
15633;SDS011;14654;48.898;8.308;2022-10-31T00:19:27;3.77;;;3.37;;
15633;SDS011;14654;48.898;8.308;2022-10-31T00:21:52;3.87;;;3.57;;
15633;SDS011;14654;48.898;8.308;2022-10-31T00:24:18;5.00;;;3.40;;
15633;SDS011;14654;48.898;8.308;2022-10-31T00:26:43;4.60;;;3.33;;
15633;SDS011;14654;48.898;8.308;2022-10-31T00:29:08;4.17;;;3.30;;
15633;SDS011;14654;48.898;8.308;2022-10-31T00:31:35;4.70;;;3.40;;
15633;SDS011;14654;48.898;8.308;2022-10-31T00:34:00;4.30;;;3.90;;
15633;SDS011;14654;48.898;8.308;2022-10-31T00:36:27;3.77;;;3.13;;
15633;SDS011;14654;48.898;8.308;2022-10-31T00:38:53;3.23;;;2.93;;
15633;SDS011;14654;48.898;8.308;2022-10-31T00:41:18;4.20;;;3.70;;
15633;SDS011;14654;48.898;8.308;2022-10-31T00:43:44;4.77;;;3.90;;
15633;SDS011;14654;48.898;8.308;2022-10-31T00:46:10;5.77;;;3.97;;
15633;SDS011;14654;48.898;8.308;2022-10-31T00:48:35;4.13;;;3.73;;
15633;SDS011;14654;48.898;8.308;2022-10-31T00:51:01;4.57;;;4.03;;
15633;SDS011;14654;48.898;8.308;2022-10-31T00:53:26;5.70;;;4.23;;
15633;SDS011;14654;48.898;8.308;2022-10-31T00:55:52;5.07;;;4.07;;
15633;SDS011;14654;48.898;8.308;2022-10-31T00:58:17;5.40;;;4.00;;
15633;SDS011;14654;48.898;8.308;2022-10-31T01:00:42;4.63;;;4.10;;
15633;SDS011;14654;48.898;8.308;2022-10-31T01:03:08;5.10;;;4.60;;
15633;SDS011;14654;48.898;8.308;2022-10-31T01:05:33;5.87;;;5.33;;
15633;SDS011;14654;48.898;8.308;2022-10-31T01:07:59;5.50;;;4.50;;
15633;SDS011;14654;48.898;8.308;2022-10-31T01:10:24;6.33;;;4.80;;
15633;SDS011;14654;48.898;8.308;2022-10-31T01:12:50;6.53;;;5.17;;
15633;SDS011;14654;48.898;8.308;2022-10-31T01:15:17;5.43;;;4.50;;
15633;SDS011;14654;48.898;8.308;2022-10-31T01:17:44;5.50;;;5.00;;
15633;SDS011;14654;48.898;8.308;2022-10-31T01:20:09;5.77;;;5.10;;
15633;SDS011;14654;48.898;8.308;2022-10-31T01:22:37;4.77;;;4.30;;
15633;SDS011;14654;48.898;8.308;2022-10-31T01:25:03;5.47;;;4.40;;
15633;SDS011;14654;48.898;8.308;2022-10-31T01:27:29;4.27;;;3.87;;
15633;SDS011;14654;48.898;8.308;2022-10-31T01:29:56;4.33;;;3.93;;
15633;SDS011;14654;48.898;8.308;2022-10-31T01:32:21;4.00;;;3.70;;
15633;SDS011;14654;48.898;8.308;2022-10-31T01:34:46;3.70;;;3.40;;
15633;SDS011;14654;48.898;8.308;2022-10-31T01:37:11;3.77;;;3.10;;
15633;SDS011;14654;48.898;8.308;2022-10-31T01:39:37;5.53;;;3.63;;
15633;SDS011;14654;48.898;8.308;2022-10-31T01:42:02;4.00;;;3.60;;
15633;SDS011;14654;48.898;8.308;2022-10-31T01:46:54;3.37;;;3.07;;
15633;SDS011;14654;48.898;8.308;2022-10-31T01:49:24;5.80;;;3.77;;
15633;SDS011;14654;48.898;8.308;2022-10-31T01:52:00;3.70;;;3.40;;
15633;SDS011;14654;48.898;8.308;2022-10-31T01:54:34;3.93;;;2.90;;
15633;SDS011;14654;48.898;8.308;2022-10-31T01:57:05;3.73;;;3.43;;
15633;SDS011;14654;48.898;8.308;2022-10-31T01:59:34;4.30;;;3.40;;
15633;SDS011;14654;48.898;8.308;2022-10-31T02:02:05;3.30;;;2.80;;
15633;SDS011;14654;48.898;8.308;2022-10-31T02:04:31;3.83;;;3.30;;
15633;SDS011;14654;48.898;8.308;2022-10-31T02:07:05;3.40;;;3.07;;
15633;SDS011;14654;48.898;8.308;2022-10-31T02:09:34;4.33;;;3.30;;
15633;SDS011;14654;48.898;8.308;2022-10-31T02:12:02;4.07;;;3.77;;
15633;SDS011;14654;48.898;8.308;2022-10-31T02:14:29;7.63;;;3.40;;
15633;SDS011;14654;48.898;8.308;2022-10-31T02:16:56;3.93;;;3.33;;
15633;SDS011;14654;48.898;8.308;2022-10-31T02:30:24;4.17;;;3.80;;
15633;SDS011;14654;48.898;8.308;2022-10-31T02:41:31;4.07;;;3.73;;
15633;SDS011;14654;48.898;8.308;2022-10-31T02:51:57;4.23;;;3.67;;
15633;SDS011;14654;48.898;8.308;2022-10-31T02:54:24;5.40;;;3.50;;
15633;SDS011;14654;48.898;8.308;2022-10-31T02:56:53;3.87;;;3.47;;
15633;SDS011;14654;48.898;8.308;2022-10-31T02:59:23;4.23;;;3.83;;
15633;SDS011;14654;48.898;8.308;2022-10-31T03:01:58;3.97;;;3.57;;
15633;SDS011;14654;48.898;8.308;2022-10-31T03:04:43;4.07;;;3.53;;
15633;SDS011;14654;48.898;8.308;2022-10-31T03:15:17;4.27;;;3.77;;
15633;SDS011;14654;48.898;8.308;2022-10-31T03:18:07;4.93;;;3.73;;
15633;SDS011;14654;48.898;8.308;2022-10-31T03:20:50;4.30;;;3.43;;
15633;SDS011;14654;48.898;8.308;2022-10-31T03:23:20;3.80;;;3.50;;
15633;SDS011;14654;48.898;8.308;2022-10-31T03:25:48;4.53;;;3.80;;
15633;SDS011;14654;48.898;8.308;2022-10-31T03:28:16;5.00;;;3.63;;
15633;SDS011;14654;48.898;8.308;2022-10-31T03:30:46;5.70;;;4.27;;
15633;SDS011;14654;48.898;8.308;2022-10-31T03:33:18;4.43;;;4.03;;
15633;SDS011;14654;48.898;8.308;2022-10-31T03:35:50;5.37;;;3.77;;
15633;SDS011;14654;48.898;8.308;2022-10-31T03:38:18;5.87;;;4.20;;
15633;SDS011;14654;48.898;8.308;2022-10-31T03:40:45;3.90;;;3.50;;
15633;SDS011;14654;48.898;8.308;2022-10-31T03:43:17;5.50;;;3.80;;
15633;SDS011;14654;48.898;8.308;2022-10-31T03:45:47;4.10;;;3.70;;
15633;SDS011;14654;48.898;8.308;2022-10-31T03:48:13;3.90;;;3.50;;
15633;SDS011;14654;48.898;8.308;2022-10-31T03:56:11;4.07;;;3.53;;
15633;SDS011;14654;48.898;8.308;2022-10-31T03:58:46;3.50;;;3.03;;
15633;SDS011;14654;48.898;8.308;2022-10-31T04:01:18;4.10;;;3.23;;
15633;SDS011;14654;48.898;8.308;2022-10-31T04:03:46;5.63;;;3.73;;
15633;SDS011;14654;48.898;8.308;2022-10-31T04:06:14;4.00;;;3.30;;
15633;SDS011;14654;48.898;8.308;2022-10-31T04:08:44;3.83;;;3.53;;
15633;SDS011;14654;48.898;8.308;2022-10-31T04:11:14;5.77;;;3.90;;
15633;SDS011;14654;48.898;8.308;2022-10-31T04:13:43;4.43;;;3.37;;
15633;SDS011;14654;48.898;8.308;2022-10-31T04:16:11;3.90;;;3.50;;
15633;SDS011;14654;48.898;8.308;2022-10-31T04:18:38;4.30;;;3.37;;
15633;SDS011;14654;48.898;8.308;2022-10-31T04:21:04;5.23;;;3.40;;
15633;SDS011;14654;48.898;8.308;2022-10-31T04:23:32;4.17;;;3.77;;
15633;SDS011;14654;48.898;8.308;2022-10-31T04:25:58;3.80;;;3.50;;
15633;SDS011;14654;48.898;8.308;2022-10-31T04:28:23;4.30;;;3.77;;
15633;SDS011;14654;48.898;8.308;2022-10-31T04:30:49;3.50;;;3.20;;
15633;SDS011;14654;48.898;8.308;2022-10-31T04:33:15;3.60;;;3.30;;
15633;SDS011;14654;48.898;8.308;2022-10-31T04:35:40;3.37;;;3.07;;
15633;SDS011;14654;48.898;8.308;2022-10-31T04:38:06;5.00;;;3.00;;
15633;SDS011;14654;48.898;8.308;2022-10-31T04:40:31;4.30;;;3.30;;
15633;SDS011;14654;48.898;8.308;2022-10-31T04:42:56;3.63;;;3.33;;
15633;SDS011;14654;48.898;8.308;2022-10-31T04:45:22;3.50;;;3.20;;
15633;SDS011;14654;48.898;8.308;2022-10-31T04:47:47;3.93;;;3.53;;
15633;SDS011;14654;48.898;8.308;2022-10-31T04:50:12;3.63;;;3.33;;
15633;SDS011;14654;48.898;8.308;2022-10-31T04:52:38;4.53;;;3.23;;
15633;SDS011;14654;48.898;8.308;2022-10-31T04:55:07;4.73;;;3.67;;
15633;SDS011;14654;48.898;8.308;2022-10-31T04:57:40;3.90;;;3.37;;
15633;SDS011;14654;48.898;8.308;2022-10-31T05:00:09;3.97;;;3.57;;
15633;SDS011;14654;48.898;8.308;2022-10-31T05:03:09;3.30;;;3.00;;
15633;SDS011;14654;48.898;8.308;2022-10-31T05:05:28;5.03;;;3.67;;
15633;SDS011;14654;48.898;8.308;2022-10-31T05:07:55;4.20;;;3.17;;
15633;SDS011;14654;48.898;8.308;2022-10-31T05:10:21;3.80;;;3.13;;
15633;SDS011;14654;48.898;8.308;2022-10-31T05:12:51;4.67;;;3.60;;
15633;SDS011;14654;48.898;8.308;2022-10-31T05:15:20;4.00;;;3.33;;
15633;SDS011;14654;48.898;8.308;2022-10-31T05:17:46;3.53;;;3.20;;
15633;SDS011;14654;48.898;8.308;2022-10-31T05:20:12;4.27;;;3.50;;
15633;SDS011;14654;48.898;8.308;2022-10-31T05:22:45;3.80;;;3.10;;
15633;SDS011;14654;48.898;8.308;2022-10-31T05:25:13;3.93;;;3.53;;
15633;SDS011;14654;48.898;8.308;2022-10-31T05:27:39;3.40;;;3.10;;
15633;SDS011;14654;48.898;8.308;2022-10-31T05:30:06;8.37;;;3.20;;
15633;SDS011;14654;48.898;8.308;2022-10-31T05:32:42;4.53;;;3.40;;
15633;SDS011;14654;48.898;8.308;2022-10-31T05:35:12;4.57;;;3.77;;
15633;SDS011;14654;48.898;8.308;2022-10-31T05:37:41;4.53;;;3.67;;
15633;SDS011;14654;48.898;8.308;2022-10-31T05:40:08;5.90;;;3.67;;
15633;SDS011;14654;48.898;8.308;2022-10-31T05:42:35;5.40;;;3.77;;
15633;SDS011;14654;48.898;8.308;2022-10-31T05:45:04;7.63;;;3.60;;
15633;SDS011;14654;48.898;8.308;2022-10-31T05:47:29;3.13;;;2.77;;
15633;SDS011;14654;48.898;8.308;2022-10-31T05:49:55;5.57;;;3.23;;
15633;SDS011;14654;48.898;8.308;2022-10-31T05:52:20;4.43;;;3.20;;
15633;SDS011;14654;48.898;8.308;2022-10-31T05:54:46;3.27;;;2.97;;
15633;SDS011;14654;48.898;8.308;2022-10-31T05:57:11;3.67;;;3.00;;
15633;SDS011;14654;48.898;8.308;2022-10-31T05:59:36;4.77;;;3.30;;
15633;SDS011;14654;48.898;8.308;2022-10-31T06:02:02;3.47;;;3.17;;
15633;SDS011;14654;48.898;8.308;2022-10-31T06:04:27;3.57;;;2.93;;
15633;SDS011;14654;48.898;8.308;2022-10-31T06:06:52;4.40;;;3.50;;
15633;SDS011;14654;48.898;8.308;2022-10-31T06:09:18;4.17;;;3.50;;
15633;SDS011;14654;48.898;8.308;2022-10-31T06:11:43;4.63;;;3.50;;
15633;SDS011;14654;48.898;8.308;2022-10-31T06:14:08;4.00;;;2.80;;
15633;SDS011;14654;48.898;8.308;2022-10-31T06:16:34;5.03;;;3.93;;
15633;SDS011;14654;48.898;8.308;2022-10-31T06:18:59;3.70;;;3.20;;
15633;SDS011;14654;48.898;8.308;2022-10-31T06:21:25;5.70;;;3.33;;
15633;SDS011;14654;48.898;8.308;2022-10-31T06:23:50;3.93;;;3.63;;
15633;SDS011;14654;48.898;8.308;2022-10-31T06:26:16;5.47;;;3.20;;
15633;SDS011;14654;48.898;8.308;2022-10-31T06:28:41;3.77;;;3.47;;
15633;SDS011;14654;48.898;8.308;2022-10-31T06:31:06;3.70;;;3.30;;
15633;SDS011;14654;48.898;8.308;2022-10-31T06:33:32;3.80;;;3.27;;
15633;SDS011;14654;48.898;8.308;2022-10-31T06:35:59;7.00;;;3.60;;
15633;SDS011;14654;48.898;8.308;2022-10-31T06:38:27;5.70;;;4.17;;
15633;SDS011;14654;48.898;8.308;2022-10-31T06:40:53;5.73;;;4.40;;
15633;SDS011;14654;48.898;8.308;2022-10-31T06:43:20;7.00;;;4.20;;
15633;SDS011;14654;48.898;8.308;2022-10-31T06:45:46;6.00;;;4.13;;
15633;SDS011;14654;48.898;8.308;2022-10-31T06:48:12;5.30;;;3.73;;
15633;SDS011;14654;48.898;8.308;2022-10-31T06:50:37;5.03;;;4.20;;
15633;SDS011;14654;48.898;8.308;2022-10-31T06:53:02;4.97;;;4.40;;
15633;SDS011;14654;48.898;8.308;2022-10-31T06:55:28;5.37;;;4.23;;
15633;SDS011;14654;48.898;8.308;2022-10-31T06:57:58;5.73;;;4.80;;
15633;SDS011;14654;48.898;8.308;2022-10-31T07:00:25;7.27;;;5.10;;
15633;SDS011;14654;48.898;8.308;2022-10-31T07:03:02;7.17;;;5.37;;
15633;SDS011;14654;48.898;8.308;2022-10-31T07:05:32;6.57;;;4.83;;
15633;SDS011;14654;48.898;8.308;2022-10-31T07:08:02;8.77;;;4.50;;
15633;SDS011;14654;48.898;8.308;2022-10-31T07:10:31;5.63;;;5.03;;
15633;SDS011;14654;48.898;8.308;2022-10-31T07:12:58;7.73;;;4.47;;
15633;SDS011;14654;48.898;8.308;2022-10-31T07:15:25;5.00;;;4.43;;
15633;SDS011;14654;48.898;8.308;2022-10-31T07:17:51;4.40;;;4.00;;
15633;SDS011;14654;48.898;8.308;2022-10-31T07:20:17;5.27;;;4.50;;
15633;SDS011;14654;48.898;8.308;2022-10-31T07:22:43;4.27;;;3.80;;
15633;SDS011;14654;48.898;8.308;2022-10-31T07:25:08;5.00;;;4.03;;
15633;SDS011;14654;48.898;8.308;2022-10-31T07:27:35;5.30;;;3.80;;
15633;SDS011;14654;48.898;8.308;2022-10-31T07:30:08;4.40;;;4.00;;
15633;SDS011;14654;48.898;8.308;2022-10-31T07:32:42;4.93;;;3.57;;
15633;SDS011;14654;48.898;8.308;2022-10-31T07:35:09;4.07;;;3.30;;
15633;SDS011;14654;48.898;8.308;2022-10-31T07:37:35;5.10;;;4.43;;
15633;SDS011;14654;48.898;8.308;2022-10-31T07:40:02;4.80;;;4.10;;
15633;SDS011;14654;48.898;8.308;2022-10-31T07:42:28;4.30;;;3.67;;
15633;SDS011;14654;48.898;8.308;2022-10-31T07:44:53;4.20;;;3.80;;
15633;SDS011;14654;48.898;8.308;2022-10-31T07:47:18;5.13;;;3.77;;
15633;SDS011;14654;48.898;8.308;2022-10-31T07:49:44;7.17;;;4.20;;
15633;SDS011;14654;48.898;8.308;2022-10-31T07:52:09;4.40;;;4.00;;
15633;SDS011;14654;48.898;8.308;2022-10-31T07:54:34;3.90;;;3.53;;
15633;SDS011;14654;48.898;8.308;2022-10-31T07:57:00;3.83;;;3.30;;
15633;SDS011;14654;48.898;8.308;2022-10-31T07:59:25;4.80;;;4.00;;
15633;SDS011;14654;48.898;8.308;2022-10-31T08:01:52;6.07;;;4.00;;
15633;SDS011;14654;48.898;8.308;2022-10-31T08:04:17;4.20;;;3.80;;
15633;SDS011;14654;48.898;8.308;2022-10-31T08:06:43;4.30;;;4.00;;
15633;SDS011;14654;48.898;8.308;2022-10-31T08:09:08;5.50;;;4.00;;
15633;SDS011;14654;48.898;8.308;2022-10-31T08:11:33;3.87;;;3.53;;
15633;SDS011;14654;48.898;8.308;2022-10-31T08:13:58;4.10;;;3.70;;
15633;SDS011;14654;48.898;8.308;2022-10-31T08:16:24;4.50;;;3.90;;
15633;SDS011;14654;48.898;8.308;2022-10-31T08:18:49;5.63;;;4.03;;
15633;SDS011;14654;48.898;8.308;2022-10-31T08:21:14;4.23;;;3.83;;
15633;SDS011;14654;48.898;8.308;2022-10-31T08:23:40;3.93;;;3.57;;
15633;SDS011;14654;48.898;8.308;2022-10-31T08:26:05;4.50;;;3.60;;
15633;SDS011;14654;48.898;8.308;2022-10-31T08:28:31;4.03;;;3.73;;
15633;SDS011;14654;48.898;8.308;2022-10-31T08:30:57;5.27;;;4.10;;
15633;SDS011;14654;48.898;8.308;2022-10-31T08:33:22;4.60;;;4.07;;
15633;SDS011;14654;48.898;8.308;2022-10-31T08:35:48;4.57;;;4.00;;
15633;SDS011;14654;48.898;8.308;2022-10-31T08:38:14;5.93;;;3.90;;
15633;SDS011;14654;48.898;8.308;2022-10-31T08:40:40;4.30;;;3.70;;
15633;SDS011;14654;48.898;8.308;2022-10-31T08:43:06;7.20;;;3.60;;
15633;SDS011;14654;48.898;8.308;2022-10-31T08:45:42;4.23;;;3.60;;
15633;SDS011;14654;48.898;8.308;2022-10-31T08:48:10;4.77;;;3.93;;
15633;SDS011;14654;48.898;8.308;2022-10-31T08:50:37;4.00;;;3.60;;
15633;SDS011;14654;48.898;8.308;2022-10-31T08:53:05;4.30;;;3.90;;
15633;SDS011;14654;48.898;8.308;2022-10-31T08:55:35;3.80;;;3.40;;
15633;SDS011;14654;48.898;8.308;2022-10-31T08:58:01;4.70;;;3.33;;
15633;SDS011;14654;48.898;8.308;2022-10-31T09:00:28;5.17;;;3.97;;
15633;SDS011;14654;48.898;8.308;2022-10-31T09:02:57;4.07;;;3.33;;
15633;SDS011;14654;48.898;8.308;2022-10-31T09:05:24;5.87;;;4.27;;
15633;SDS011;14654;48.898;8.308;2022-10-31T09:07:49;3.97;;;3.37;;
15633;SDS011;14654;48.898;8.308;2022-10-31T09:10:15;4.60;;;3.67;;
15633;SDS011;14654;48.898;8.308;2022-10-31T09:12:40;4.47;;;4.07;;
15633;SDS011;14654;48.898;8.308;2022-10-31T09:15:06;5.53;;;4.10;;
15633;SDS011;14654;48.898;8.308;2022-10-31T09:17:32;4.37;;;3.97;;
15633;SDS011;14654;48.898;8.308;2022-10-31T09:19:57;6.50;;;5.87;;
15633;SDS011;14654;48.898;8.308;2022-10-31T09:22:23;5.97;;;4.97;;
15633;SDS011;14654;48.898;8.308;2022-10-31T09:24:48;5.07;;;4.57;;
15633;SDS011;14654;48.898;8.308;2022-10-31T09:27:13;4.60;;;4.17;;
15633;SDS011;14654;48.898;8.308;2022-10-31T09:29:39;4.23;;;3.90;;
15633;SDS011;14654;48.898;8.308;2022-10-31T09:32:04;4.30;;;3.90;;
15633;SDS011;14654;48.898;8.308;2022-10-31T09:34:29;4.00;;;3.60;;
15633;SDS011;14654;48.898;8.308;2022-10-31T09:36:55;5.73;;;4.13;;
15633;SDS011;14654;48.898;8.308;2022-10-31T09:39:20;3.93;;;3.53;;
15633;SDS011;14654;48.898;8.308;2022-10-31T09:42:04;4.77;;;3.80;;
15633;SDS011;14654;48.898;8.308;2022-10-31T09:44:39;4.23;;;3.70;;
15633;SDS011;14654;48.898;8.308;2022-10-31T09:49:42;4.50;;;3.60;;
15633;SDS011;14654;48.898;8.308;2022-10-31T09:52:29;5.37;;;4.13;;
15633;SDS011;14654;48.898;8.308;2022-10-31T09:57:34;4.23;;;3.77;;
15633;SDS011;14654;48.898;8.308;2022-10-31T10:00:03;5.27;;;4.10;;
15633;SDS011;14654;48.898;8.308;2022-10-31T10:02:33;4.03;;;3.60;;
15633;SDS011;14654;48.898;8.308;2022-10-31T10:05:08;4.90;;;3.50;;
15633;SDS011;14654;48.898;8.308;2022-10-31T10:10:32;4.07;;;3.50;;
15633;SDS011;14654;48.898;8.308;2022-10-31T10:13:21;4.03;;;3.63;;
15633;SDS011;14654;48.898;8.308;2022-10-31T10:18:32;4.23;;;3.83;;
15633;SDS011;14654;48.898;8.308;2022-10-31T10:23:39;4.80;;;4.20;;
15633;SDS011;14654;48.898;8.308;2022-10-31T10:26:37;3.87;;;3.53;;
15633;SDS011;14654;48.898;8.308;2022-10-31T10:31:56;5.20;;;3.87;;
15633;SDS011;14654;48.898;8.308;2022-10-31T10:34:27;4.50;;;3.50;;
15633;SDS011;14654;48.898;8.308;2022-10-31T10:37:08;3.80;;;3.40;;
15633;SDS011;14654;48.898;8.308;2022-10-31T10:39:45;4.10;;;3.70;;
15633;SDS011;14654;48.898;8.308;2022-10-31T10:42:13;4.73;;;3.50;;
15633;SDS011;14654;48.898;8.308;2022-10-31T10:44:59;4.73;;;3.33;;
15633;SDS011;14654;48.898;8.308;2022-10-31T10:47:54;3.80;;;3.40;;
15633;SDS011;14654;48.898;8.308;2022-10-31T10:50:34;4.03;;;3.23;;
15633;SDS011;14654;48.898;8.308;2022-10-31T10:55:56;4.97;;;3.80;;
15633;SDS011;14654;48.898;8.308;2022-10-31T10:58:27;3.63;;;3.30;;
15633;SDS011;14654;48.898;8.308;2022-10-31T11:00:52;4.90;;;3.47;;
15633;SDS011;14654;48.898;8.308;2022-10-31T11:03:19;5.37;;;3.33;;
15633;SDS011;14654;48.898;8.308;2022-10-31T11:05:55;4.47;;;3.33;;
15633;SDS011;14654;48.898;8.308;2022-10-31T11:08:27;3.70;;;3.40;;
15633;SDS011;14654;48.898;8.308;2022-10-31T11:13:32;4.17;;;3.57;;
15633;SDS011;14654;48.898;8.308;2022-10-31T11:18:29;4.40;;;3.80;;
15633;SDS011;14654;48.898;8.308;2022-10-31T11:21:00;5.07;;;3.73;;
15633;SDS011;14654;48.898;8.308;2022-10-31T11:23:31;5.43;;;3.97;;
15633;SDS011;14654;48.898;8.308;2022-10-31T11:25:58;5.47;;;3.73;;
15633;SDS011;14654;48.898;8.308;2022-10-31T11:28:26;3.90;;;3.53;;
15633;SDS011;14654;48.898;8.308;2022-10-31T11:35:55;3.60;;;3.30;;
15633;SDS011;14654;48.898;8.308;2022-10-31T11:38:22;4.07;;;3.63;;
15633;SDS011;14654;48.898;8.308;2022-10-31T11:41:24;4.10;;;3.33;;
15633;SDS011;14654;48.898;8.308;2022-10-31T11:43:59;4.30;;;3.83;;
15633;SDS011;14654;48.898;8.308;2022-10-31T11:46:35;5.80;;;4.10;;
15633;SDS011;14654;48.898;8.308;2022-10-31T11:49:04;5.27;;;4.77;;
15633;SDS011;14654;48.898;8.308;2022-10-31T11:51:36;6.03;;;4.60;;
15633;SDS011;14654;48.898;8.308;2022-10-31T11:54:02;4.03;;;3.70;;
15633;SDS011;14654;48.898;8.308;2022-10-31T11:56:39;4.57;;;3.97;;
15633;SDS011;14654;48.898;8.308;2022-10-31T11:59:14;3.93;;;3.50;;
15633;SDS011;14654;48.898;8.308;2022-10-31T12:01:46;4.10;;;3.37;;
15633;SDS011;14654;48.898;8.308;2022-10-31T12:04:13;4.10;;;3.70;;
15633;SDS011;14654;48.898;8.308;2022-10-31T12:06:39;4.33;;;3.93;;
15633;SDS011;14654;48.898;8.308;2022-10-31T12:09:26;4.17;;;3.60;;
15633;SDS011;14654;48.898;8.308;2022-10-31T12:17:16;4.10;;;3.57;;
15633;SDS011;14654;48.898;8.308;2022-10-31T12:37:18;3.30;;;3.00;;
15633;SDS011;14654;48.898;8.308;2022-10-31T12:43:46;4.13;;;3.30;;
15633;SDS011;14654;48.898;8.308;2022-10-31T12:45:53;3.60;;;3.30;;
15633;SDS011;14654;48.898;8.308;2022-10-31T13:00:13;4.57;;;3.30;;
15633;SDS011;14654;48.898;8.308;2022-10-31T13:05:22;5.03;;;3.43;;
15633;SDS011;14654;48.898;8.308;2022-10-31T13:07:54;5.47;;;3.47;;
15633;SDS011;14654;48.898;8.308;2022-10-31T13:10:29;4.63;;;3.40;;
15633;SDS011;14654;48.898;8.308;2022-10-31T13:13:07;4.93;;;3.50;;
15633;SDS011;14654;48.898;8.308;2022-10-31T13:15:52;4.10;;;3.50;;
15633;SDS011;14654;48.898;8.308;2022-10-31T13:18:27;4.03;;;3.63;;
15633;SDS011;14654;48.898;8.308;2022-10-31T13:20:57;5.43;;;3.83;;
15633;SDS011;14654;48.898;8.308;2022-10-31T13:25:53;5.53;;;4.40;;
15633;SDS011;14654;48.898;8.308;2022-10-31T13:31:10;4.47;;;3.87;;
15633;SDS011;14654;48.898;8.308;2022-10-31T13:33:38;6.13;;;4.37;;
15633;SDS011;14654;48.898;8.308;2022-10-31T13:44:25;4.97;;;4.03;;
15633;SDS011;14654;48.898;8.308;2022-10-31T13:46:53;6.10;;;4.80;;
15633;SDS011;14654;48.898;8.308;2022-10-31T13:54:45;4.77;;;4.30;;
15633;SDS011;14654;48.898;8.308;2022-10-31T13:57:21;5.00;;;4.17;;
15633;SDS011;14654;48.898;8.308;2022-10-31T13:59:53;4.77;;;4.27;;
15633;SDS011;14654;48.898;8.308;2022-10-31T14:02:31;4.93;;;3.67;;
15633;SDS011;14654;48.898;8.308;2022-10-31T14:05:00;6.63;;;4.90;;
15633;SDS011;14654;48.898;8.308;2022-10-31T14:07:46;5.03;;;4.00;;
15633;SDS011;14654;48.898;8.308;2022-10-31T14:15:38;4.77;;;3.87;;
15633;SDS011;14654;48.898;8.308;2022-10-31T14:18:17;3.90;;;3.60;;
15633;SDS011;14654;48.898;8.308;2022-10-31T14:20:48;4.63;;;4.10;;
15633;SDS011;14654;48.898;8.308;2022-10-31T14:26:08;4.33;;;3.93;;
15633;SDS011;14654;48.898;8.308;2022-10-31T14:29:38;3.67;;;3.37;;
15633;SDS011;14654;48.898;8.308;2022-10-31T14:31:55;4.33;;;3.67;;
15633;SDS011;14654;48.898;8.308;2022-10-31T14:39:49;5.17;;;3.87;;
15633;SDS011;14654;48.898;8.308;2022-10-31T14:42:22;3.87;;;3.57;;
15633;SDS011;14654;48.898;8.308;2022-10-31T14:45:06;4.17;;;3.70;;
15633;SDS011;14654;48.898;8.308;2022-10-31T14:47:36;6.87;;;4.80;;
15633;SDS011;14654;48.898;8.308;2022-10-31T14:50:09;4.80;;;4.30;;
15633;SDS011;14654;48.898;8.308;2022-10-31T14:52:44;5.00;;;4.50;;
15633;SDS011;14654;48.898;8.308;2022-10-31T14:55:14;4.33;;;3.90;;
15633;SDS011;14654;48.898;8.308;2022-10-31T14:57:44;6.00;;;4.40;;
15633;SDS011;14654;48.898;8.308;2022-10-31T15:00:31;5.03;;;3.93;;
15633;SDS011;14654;48.898;8.308;2022-10-31T15:05:27;4.63;;;4.03;;
15633;SDS011;14654;48.898;8.308;2022-10-31T15:07:54;5.30;;;4.80;;
15633;SDS011;14654;48.898;8.308;2022-10-31T15:10:22;8.47;;;5.17;;
15633;SDS011;14654;48.898;8.308;2022-10-31T15:13:13;7.40;;;5.50;;
15633;SDS011;14654;48.898;8.308;2022-10-31T15:15:43;7.27;;;5.10;;
15633;SDS011;14654;48.898;8.308;2022-10-31T15:18:14;6.70;;;4.97;;
15633;SDS011;14654;48.898;8.308;2022-10-31T15:20:43;8.60;;;5.60;;
15633;SDS011;14654;48.898;8.308;2022-10-31T15:23:10;8.30;;;6.90;;
15633;SDS011;14654;48.898;8.308;2022-10-31T15:25:46;8.03;;;5.47;;
15633;SDS011;14654;48.898;8.308;2022-10-31T15:28:13;8.10;;;5.53;;
15633;SDS011;14654;48.898;8.308;2022-10-31T15:30:39;6.93;;;5.40;;
15633;SDS011;14654;48.898;8.308;2022-10-31T15:33:22;10.80;;;6.10;;
15633;SDS011;14654;48.898;8.308;2022-10-31T15:35:59;8.53;;;6.00;;
15633;SDS011;14654;48.898;8.308;2022-10-31T15:38:26;10.37;;;7.13;;
15633;SDS011;14654;48.898;8.308;2022-10-31T15:40:54;13.43;;;6.00;;
15633;SDS011;14654;48.898;8.308;2022-10-31T15:43:26;15.33;;;13.70;;
15633;SDS011;14654;48.898;8.308;2022-10-31T15:45:56;14.67;;;13.03;;
15633;SDS011;14654;48.898;8.308;2022-10-31T15:48:23;10.53;;;6.37;;
15633;SDS011;14654;48.898;8.308;2022-10-31T15:50:50;11.70;;;10.13;;
15633;SDS011;14654;48.898;8.308;2022-10-31T15:53:29;10.40;;;9.40;;
15633;SDS011;14654;48.898;8.308;2022-10-31T15:56:07;10.10;;;5.70;;
15633;SDS011;14654;48.898;8.308;2022-10-31T15:58:45;6.67;;;5.47;;
15633;SDS011;14654;48.898;8.308;2022-10-31T16:01:20;7.97;;;5.33;;
15633;SDS011;14654;48.898;8.308;2022-10-31T16:06:37;6.07;;;4.50;;
15633;SDS011;14654;48.898;8.308;2022-10-31T16:09:04;6.43;;;4.10;;
15633;SDS011;14654;48.898;8.308;2022-10-31T16:11:48;7.47;;;4.80;;
15633;SDS011;14654;48.898;8.308;2022-10-31T16:14:17;7.73;;;5.63;;
15633;SDS011;14654;48.898;8.308;2022-10-31T16:16:48;8.73;;;5.17;;
15633;SDS011;14654;48.898;8.308;2022-10-31T16:21:48;7.57;;;5.97;;
15633;SDS011;14654;48.898;8.308;2022-10-31T16:26:52;6.37;;;5.20;;
15633;SDS011;14654;48.898;8.308;2022-10-31T16:32:00;7.07;;;5.07;;
15633;SDS011;14654;48.898;8.308;2022-10-31T16:34:25;6.27;;;4.40;;
15633;SDS011;14654;48.898;8.308;2022-10-31T16:36:51;6.87;;;4.93;;
15633;SDS011;14654;48.898;8.308;2022-10-31T16:39:16;5.67;;;4.80;;
15633;SDS011;14654;48.898;8.308;2022-10-31T16:41:43;7.43;;;5.37;;
15633;SDS011;14654;48.898;8.308;2022-10-31T16:44:25;8.43;;;7.07;;
15633;SDS011;14654;48.898;8.308;2022-10-31T16:49:47;8.37;;;6.50;;
15633;SDS011;14654;48.898;8.308;2022-10-31T16:52:14;9.53;;;7.40;;
15633;SDS011;14654;48.898;8.308;2022-10-31T16:54:40;9.47;;;8.53;;
15633;SDS011;14654;48.898;8.308;2022-10-31T16:57:05;8.70;;;7.90;;
15633;SDS011;14654;48.898;8.308;2022-10-31T16:59:34;7.30;;;6.60;;
15633;SDS011;14654;48.898;8.308;2022-10-31T17:01:59;9.80;;;6.87;;
15633;SDS011;14654;48.898;8.308;2022-10-31T17:04:28;8.83;;;6.50;;
15633;SDS011;14654;48.898;8.308;2022-10-31T17:06:53;6.47;;;5.87;;
15633;SDS011;14654;48.898;8.308;2022-10-31T17:09:18;6.03;;;5.43;;
15633;SDS011;14654;48.898;8.308;2022-10-31T17:11:45;6.33;;;5.63;;
15633;SDS011;14654;48.898;8.308;2022-10-31T17:14:12;5.80;;;5.20;;
15633;SDS011;14654;48.898;8.308;2022-10-31T17:16:38;4.90;;;4.50;;
15633;SDS011;14654;48.898;8.308;2022-10-31T17:19:03;5.53;;;5.00;;
15633;SDS011;14654;48.898;8.308;2022-10-31T17:21:29;5.37;;;4.87;;
15633;SDS011;14654;48.898;8.308;2022-10-31T17:23:54;7.20;;;5.60;;
15633;SDS011;14654;48.898;8.308;2022-10-31T17:26:20;6.27;;;5.57;;
15633;SDS011;14654;48.898;8.308;2022-10-31T17:28:45;4.97;;;4.50;;
15633;SDS011;14654;48.898;8.308;2022-10-31T17:31:30;6.30;;;4.70;;
15633;SDS011;14654;48.898;8.308;2022-10-31T17:34:00;6.93;;;4.90;;
15633;SDS011;14654;48.898;8.308;2022-10-31T17:36:27;5.10;;;4.60;;
15633;SDS011;14654;48.898;8.308;2022-10-31T17:38:53;5.87;;;4.90;;
15633;SDS011;14654;48.898;8.308;2022-10-31T17:41:18;4.50;;;4.10;;